Best Free Video API Site

AVDBAPI.COM

Search the catalog, inspect records, and copy clean API URLs from one fast dashboard.

Telegram Join Our Telegram Community for Updates!
Today
0
Updates Today
Censored
314089
Censored Videos
Total
474268
Total Videos

Video List

Latest records ordered by update time.

ID Name CODE Category Updated API
263782 040822-001 Suzumiya Jiro Spider ~ A big strategy of a Yariman beauty who captures a man in a public toilet ~ Suzumiya Non 040822-001 Uncensored 2025-08-29 00:42:00 API
263781 HEYZO-2714 Reina Hataki [Beautiful Mizu] I mischievously played with a slender mature woman who came to handle complaints. HEYZO-2714 Uncensored 2025-08-29 00:41:50 API
263780 PME105 Use a hard cock to guide vanity niece to obey and get fucked attitude education PME105 Chinese AV 2025-08-29 00:41:40 API
263779 103120_001 My best friend Minori Kawahara 103120_001 Uncensored 2025-08-29 00:41:30 API
263778 C0930-KI211125 Maki Ishiyama 22 years old C0930-KI211125 Uncensored 2025-08-29 00:41:20 API
263777 113016-004 Female Heat Continent File.053 113016-004 Uncensored 2025-08-29 00:41:10 API
263776 H-220712 Rimi Yano H-220712 Uncensored 2025-08-29 00:41:00 API
263775 041021-458 Bring a lewd chair! Everything is 3150! 041021-458 Uncensored 2025-08-29 00:40:50 API
263774 071421-01 Rich blowjob that desperately moves a cute face 071421-01 Uncensored 2025-08-29 00:40:40 API
263773 FC2-PPV-4503128 Two years old Takuo University in one place, cute smile, cute, cute smile. A joint decision was made regarding the provision of financial aid. The sound of the voice was overwhelming, and I felt confused. FC2-PPV-4503128 Uncensored 2025-08-29 00:40:30 API
263772 040922-001 Beautiful small breasts Yume Yokoyama Yume Yokoyama 040922-001 Uncensored 2025-08-29 00:40:20 API
263771 HEYZO-2715 Honoka Orihara [Honoka Orihara] I'll give you a pie with Honoka Orihara! HEYZO-2715 Uncensored 2025-08-29 00:40:10 API
263770 H0930-KI220419 Yumi Hayakawa Age 46 H0930-KI220419 Uncensored 2025-08-29 00:40:00 API
263769 110120_001 Temptation of Manchira-My classmate's mom is Bon, Kyu, Bon! ~ 110120_001 Uncensored 2025-08-29 00:39:50 API
263768 JUP0005 [Collapse of propensity] I feel too much and squirting, incontinence, and convulsions. The result of tasting hard SM play with a normal woman JUP0005 Uncensored 2025-08-29 00:39:40 API
263767 041321-459 In the case of thick aunts who ejaculate on their wife's boobs 041321-459 Uncensored 2025-08-29 00:39:30 API
263766 H4610-KI220714 Reina Sawaguchi, 28 years old H4610-KI220714 Uncensored 2025-08-29 00:39:20 API
263765 FC2-PPV-4501020 Shoujibisutatsu/Outside! Limited limit 3 days! 3. Transparent white peach natural H cup fat sensitive, lawless cotton flower sugar large mountain sparrow pulpunpun! ③Black hair and cute hair growth difference in distance stick... 2020 FC2-PPV-4501020 Uncensored 2025-08-29 00:39:10 API
263764 071621-01 [VR] Geki Kawa Fair-skinned Active Female College Student and Raw Saddle 071621-01 Uncensored 2025-08-29 00:39:00 API
263763 120216-003 Tokimeki ~ Do you hate bristle pussy? ~ 120216-003 Uncensored 2025-08-29 00:38:50 API
263762 C0930-TK0047 Tomona Chodai 27 years old C0930-TK0047 Uncensored 2025-08-29 00:38:40 API
263761 H0930-KI220421 Rikako Ishizawa Age 43 H0930-KI220421 Uncensored 2025-08-29 00:38:30 API
263760 HEYZO-2738 Melody [Merodii] Continuous vaginal cum shot to super beautiful girl Melody! HEYZO-2738 Uncensored 2025-08-29 00:38:20 API
263759 041222-001 I won't let you go ~ I'm so impatient that I'm going to get rid of it ~ Ryoka Sakurai 041222-001 Uncensored 2025-08-29 00:38:10 API
263758 110320_001 Naughty piano lessons 110320_001 Uncensored 2025-08-29 00:38:00 API
263757 041521-460 Amateur Wife's First Shooting Document 91 Kasumi Saito 041521-460 Uncensored 2025-08-29 00:37:50 API
263756 H-220714 Reina Sawaguchi H-220714 Uncensored 2025-08-29 00:37:40 API
263755 071721-01 An amateur daughter who is curious about AV and has a neat feeling challenges shooting for the first time 071721-01 Uncensored 2025-08-29 00:37:30 API
263753 CUS-1849 Women's clothing gangsters live in single women's dormitories CUS-1849 Chinese AV 2025-08-29 00:37:10 API
263752 C0930-KI211128 Hitomi Nagase 20 years old C0930-KI211128 Uncensored 2025-08-29 00:37:00 API
263751 FC2-PPV-4501891 REMI-CHAN INSTAGRAM BAZ clothing model FC2-PPV-4501891 Uncensored 2025-08-29 00:36:50 API
263750 H0930-TK0057 Maebayashi Shiori 27 years old H0930-TK0057 Uncensored 2025-08-29 00:36:40 API
263749 SR031 New graduate recruitment record No.031 Akane [Personal shooting] SR031 Uncensored 2025-08-29 00:36:30 API
263748 HEYZO-2712 Nana Shirai [Shiraina] Ona Rimaku and Guchogucho! Cum Sexual Intercourse With Nadsukebe Musume Vol.24 HEYZO-2712 Uncensored 2025-08-29 00:36:20 API
263747 041721-461 Compliant housekeeper 041721-461 Uncensored 2025-08-29 00:36:10 API
263746 120716-002 Amateur Wife's First Shooting Document 29 Nagisa Asakura 120716-002 Uncensored 2025-08-29 00:36:00 API
263745 H4610-KI220717 Shizuka Nishimura 24 years old H4610-KI220717 Uncensored 2025-08-29 00:35:50 API
263744 110520_001 Aoshino ~ Aoshino Special Edition ~ 110520_001 Uncensored 2025-08-29 00:35:40 API
263743 071921-01 Rookie AV actor negotiates AV shooting with F cup female friend 071921-01 Uncensored 2025-08-29 00:35:30 API
263742 041422-001 THE Undisclosed 041422-001 Uncensored 2025-08-29 00:35:20 API
263741 042021-462 A drunken aunt who is good at spoiling 042021-462 Uncensored 2025-08-29 00:35:10 API
263740 H0930-KI220424 Ayumi Nakamura 24 years old H0930-KI220424 Uncensored 2025-08-29 00:35:00 API
263739 C0930-KI211130 Masayo Nagano 42 years old C0930-KI211130 Uncensored 2025-08-29 00:34:50 API
263738 FC2-PPV-4501142 BATSICHI 27-year-Ord -old Reishoku Kouya available! Blowing Cow-Makupa-Raw Strange Things FC2-PPV-4501142 Uncensored 2025-08-29 00:34:40 API
263737 HEYZO-2722 Yukari Sato [Yurika Sato] Don't take your eyes off! Saddle while looking at the camera Vol.3 HEYZO-2722 Uncensored 2025-08-29 00:34:30 API
263736 H4610-KI220716 Pee feature H4610-KI220716 Uncensored 2025-08-29 00:34:20 API
263735 042221-463 Aunt Leaked ~ In the case of mature women who piss 042221-463 Uncensored 2025-08-29 00:34:10 API
263734 SR032 New graduate recruitment record No.032 Reika [Personal shooting] SR032 Uncensored 2025-08-29 00:34:00 API
263733 072021-01 I was introduced to the plump G cup daughter who loves sex 072021-01 Uncensored 2025-08-29 00:33:50 API
263732 041522-001 Orgy Acme Heaven ~ My Body That Iku Can't Stop ~ Ayase Dewashi 041522-001 Uncensored 2025-08-29 00:33:40 API